createdAt,value
2023-05-06T00:01:15.021Z,101336.00
2023-05-06T00:03:42.075Z,101330.00
2023-05-06T00:06:09.224Z,101334.00
2023-05-06T00:08:36.293Z,101342.00
2023-05-06T00:11:03.233Z,101331.00
2023-05-06T00:13:29.995Z,101332.00
2023-05-06T00:15:56.817Z,101331.00
2023-05-06T00:18:23.763Z,101328.00
2023-05-06T00:20:50.721Z,101326.00
2023-05-06T00:23:17.473Z,101323.00
2023-05-06T00:25:44.216Z,101327.00
2023-05-06T00:28:10.960Z,101333.00
2023-05-06T00:30:37.718Z,101325.00
2023-05-06T00:33:04.635Z,101332.00
2023-05-06T00:35:31.477Z,101329.00
2023-05-06T00:38:08.080Z,101325.00
2023-05-06T00:40:34.827Z,101328.00
2023-05-06T00:43:02.713Z,101325.00
2023-05-06T00:45:29.877Z,101305.00
2023-05-06T00:47:57.787Z,101297.00
2023-05-06T00:50:28.119Z,101301.00
2023-05-06T00:52:57.024Z,101300.00
2023-05-06T00:55:24.493Z,101292.00
2023-05-06T00:57:53.033Z,101298.00
2023-05-06T01:00:21.055Z,101283.00
2023-05-06T01:02:49.106Z,101274.00
2023-05-06T01:05:22.486Z,101264.00
2023-05-06T01:08:35.712Z,101269.00
2023-05-06T01:11:15.796Z,101265.00
2023-05-06T01:14:18.542Z,101256.00
2023-05-06T01:16:53.006Z,101261.00
2023-05-06T01:19:46.604Z,101261.00
2023-05-06T01:22:13.855Z,101258.00
2023-05-06T01:24:44.231Z,101254.00
2023-05-06T01:27:13.872Z,101247.00
2023-05-06T01:29:45.363Z,101253.00
2023-05-06T01:32:33.699Z,101243.00
2023-05-06T01:35:33.136Z,101247.00
2023-05-06T01:38:11.705Z,101253.00
2023-05-06T01:40:41.474Z,101251.00
2023-05-06T01:43:08.985Z,101259.00
2023-05-06T01:45:38.298Z,101253.00
2023-05-06T01:48:06.870Z,101248.00
2023-05-06T01:50:35.572Z,101245.00
2023-05-06T01:53:03.576Z,101239.00
2023-05-06T01:55:30.542Z,101241.00
2023-05-06T01:57:57.292Z,101238.00
2023-05-06T02:00:25.951Z,101239.00
2023-05-06T02:02:52.868Z,101235.00
2023-05-06T02:05:20.665Z,101241.00
2023-05-06T02:07:47.439Z,101229.00
2023-05-06T02:10:14.206Z,101225.00
2023-05-06T02:12:40.947Z,101243.00
2023-05-06T02:15:08.755Z,101231.00
2023-05-06T02:17:38.112Z,101233.00
2023-05-06T02:20:06.050Z,101238.00
2023-05-06T02:22:32.888Z,101224.00
2023-05-06T02:24:59.649Z,101240.00
2023-05-06T02:27:26.428Z,101235.00
2023-05-06T02:29:53.249Z,101247.00
2023-05-06T02:32:19.972Z,101250.00
2023-05-06T02:34:46.673Z,101248.00
2023-05-06T02:37:13.413Z,101254.00
2023-05-06T02:39:40.317Z,101244.00
2023-05-06T02:42:07.188Z,101247.00
2023-05-06T02:44:33.954Z,101245.00
2023-05-06T02:47:00.731Z,101240.00
2023-05-06T02:49:27.519Z,101251.00
2023-05-06T02:51:54.306Z,101243.00
2023-05-06T02:54:21.103Z,101249.00
2023-05-06T02:56:47.841Z,101244.00
2023-05-06T02:59:14.616Z,101246.00
2023-05-06T03:01:41.511Z,101251.00
2023-05-06T03:04:08.349Z,101245.00
2023-05-06T03:06:36.179Z,101249.00
2023-05-06T03:09:03.040Z,101229.00
2023-05-06T03:11:31.489Z,101236.00
2023-05-06T03:13:58.397Z,101235.00
2023-05-06T03:16:25.304Z,101221.00
2023-05-06T03:18:52.102Z,101218.00
2023-05-06T03:21:18.973Z,101224.00
2023-05-06T03:23:45.748Z,101217.00
2023-05-06T03:26:12.639Z,101229.00
2023-05-06T03:28:39.763Z,101228.00
2023-05-06T03:31:06.540Z,101229.00
2023-05-06T03:33:33.333Z,101232.00
2023-05-06T03:36:00.090Z,101234.00
2023-05-06T03:38:26.853Z,101235.00
2023-05-06T03:40:53.936Z,101245.00
2023-05-06T03:43:20.755Z,101245.00
2023-05-06T03:45:47.652Z,101242.00
2023-05-06T03:48:14.457Z,101240.00
2023-05-06T03:50:41.417Z,101226.00
2023-05-06T03:53:08.450Z,101228.00
2023-05-06T03:55:35.233Z,101224.00
2023-05-06T03:58:02.109Z,101219.00
2023-05-06T04:00:28.840Z,101218.00
2023-05-06T04:02:55.705Z,101222.00
2023-05-06T04:05:22.577Z,101216.00
2023-05-06T04:07:49.387Z,101214.00
2023-05-06T04:10:16.307Z,101200.00
2023-05-06T04:12:43.147Z,101214.00
2023-05-06T04:15:10.828Z,101210.00
2023-05-06T04:17:37.915Z,101205.00
2023-05-06T04:20:06.906Z,101211.00
2023-05-06T04:22:33.697Z,101214.00
2023-05-06T04:25:01.262Z,101232.00
2023-05-06T04:27:29.804Z,101230.00
2023-05-06T04:29:56.860Z,101227.00
2023-05-06T04:32:26.671Z,101221.00
2023-05-06T04:34:54.016Z,101223.00
2023-05-06T04:37:21.102Z,101220.00
2023-05-06T04:39:48.745Z,101227.00
2023-05-06T04:42:16.750Z,101233.00
2023-05-06T04:44:43.910Z,101240.00
2023-05-06T04:47:10.700Z,101241.00
2023-05-06T04:49:37.472Z,101240.00
2023-05-06T04:52:04.586Z,101243.00
2023-05-06T04:54:31.430Z,101242.00
2023-05-06T04:56:58.394Z,101244.00
2023-05-06T04:59:25.401Z,101248.00
2023-05-06T05:01:52.209Z,101246.00
2023-05-06T05:04:19.044Z,101254.00
2023-05-06T05:06:45.781Z,101253.00
2023-05-06T05:09:12.533Z,101251.00
2023-05-06T05:11:39.344Z,101251.00
2023-05-06T05:14:06.105Z,101260.00
2023-05-06T05:16:32.950Z,101259.00
2023-05-06T05:19:02.182Z,101265.00
2023-05-06T05:21:30.361Z,101272.00
2023-05-06T05:23:57.174Z,101272.00
2023-05-06T05:26:23.917Z,101280.00
2023-05-06T05:28:50.644Z,101274.00
2023-05-06T05:31:17.410Z,101267.00
2023-05-06T05:33:44.230Z,101275.00
2023-05-06T05:36:12.451Z,101277.00
2023-05-06T05:38:39.247Z,101267.00
2023-05-06T05:41:06.426Z,101271.00
2023-05-06T05:43:33.222Z,101273.00
2023-05-06T05:46:00.040Z,101269.00
2023-05-06T05:48:26.826Z,101281.00
2023-05-06T05:50:53.544Z,101278.00
2023-05-06T05:53:20.347Z,101272.00
2023-05-06T05:55:48.425Z,101270.00
2023-05-06T05:58:15.256Z,101267.00
2023-05-06T06:00:41.998Z,101280.00
2023-05-06T06:03:08.877Z,101266.00
2023-05-06T06:05:35.789Z,101274.00
2023-05-06T06:08:04.026Z,101268.00
2023-05-06T06:10:30.910Z,101267.00
2023-05-06T06:12:57.737Z,101275.00
2023-05-06T06:15:24.581Z,101270.00
2023-05-06T06:17:54.882Z,101292.00
2023-05-06T06:20:21.707Z,101288.00
2023-05-06T06:22:48.450Z,101288.00
2023-05-06T06:25:15.397Z,101289.00
2023-05-06T06:27:42.152Z,101295.00
2023-05-06T06:30:09.447Z,101294.00
2023-05-06T06:32:36.302Z,101302.00
2023-05-06T06:35:03.156Z,101296.00
2023-05-06T06:37:29.899Z,101297.00
2023-05-06T06:39:56.776Z,101298.00
2023-05-06T06:42:23.969Z,101304.00
2023-05-06T06:44:50.704Z,101302.00
2023-05-06T06:47:17.475Z,101293.00
2023-05-06T06:49:44.282Z,101303.00
2023-05-06T06:52:11.017Z,101290.00
2023-05-06T06:54:38.833Z,101300.00
2023-05-06T06:57:06.947Z,101301.00
2023-05-06T06:59:33.775Z,101288.00
2023-05-06T07:02:00.920Z,101306.00
2023-05-06T07:04:27.753Z,101302.00
2023-05-06T07:06:54.773Z,101303.00
2023-05-06T07:09:21.526Z,101305.00
2023-05-06T07:11:48.259Z,101293.00
2023-05-06T07:14:15.055Z,101306.00
2023-05-06T07:16:42.962Z,101304.00
2023-05-06T07:19:11.339Z,101300.00
2023-05-06T07:21:38.074Z,101300.00
2023-05-06T07:24:05.053Z,101306.00
2023-05-06T07:26:36.232Z,101314.00
2023-05-06T07:29:04.431Z,101308.00
2023-05-06T07:31:33.536Z,101307.00
2023-05-06T07:34:00.879Z,101305.00
2023-05-06T07:36:28.693Z,101307.00
2023-05-06T07:38:55.487Z,101306.00
2023-05-06T07:41:22.236Z,101308.00
2023-05-06T07:43:48.998Z,101304.00
2023-05-06T07:46:15.837Z,101309.00
2023-05-06T07:48:42.623Z,101316.00
2023-05-06T07:51:09.386Z,101304.00
2023-05-06T07:53:38.087Z,101311.00
2023-05-06T07:56:05.118Z,101311.00
2023-05-06T07:58:32.129Z,101318.00
2023-05-06T08:01:00.051Z,101323.00
2023-05-06T08:03:27.019Z,101326.00
2023-05-06T08:05:55.205Z,101321.00
2023-05-06T08:08:27.716Z,101330.00
2023-05-06T08:11:03.462Z,101333.00
2023-05-06T08:13:30.578Z,101331.00
2023-05-06T08:15:57.471Z,101332.00
2023-05-06T08:18:24.355Z,101342.00
2023-05-06T08:20:51.340Z,101344.00
2023-05-06T08:23:18.158Z,101336.00
2023-05-06T08:25:44.954Z,101338.00
2023-05-06T08:28:11.654Z,101334.00
2023-05-06T08:30:38.415Z,101339.00
2023-05-06T08:33:05.387Z,101334.00
2023-05-06T08:35:32.149Z,101333.00
2023-05-06T08:37:58.947Z,101342.00
2023-05-06T08:40:27.979Z,101341.00
2023-05-06T08:42:57.523Z,101357.00
2023-05-06T08:45:24.392Z,101356.00
2023-05-06T08:47:51.868Z,101355.00
2023-05-06T08:50:18.707Z,101352.00
2023-05-06T08:52:45.538Z,101362.00
2023-05-06T08:55:12.818Z,101364.00
2023-05-06T08:57:41.064Z,101367.00
2023-05-06T09:00:10.958Z,101361.00
2023-05-06T09:02:41.992Z,101371.00
2023-05-06T09:05:11.377Z,101368.00
2023-05-06T09:07:38.276Z,101375.00
2023-05-06T09:10:15.504Z,101384.00
2023-05-06T09:12:42.287Z,101377.00
2023-05-06T09:15:10.594Z,101378.00
2023-05-06T09:17:37.728Z,101372.00
2023-05-06T09:20:08.525Z,101384.00
2023-05-06T09:22:40.361Z,101378.00
2023-05-06T09:25:07.896Z,101372.00
2023-05-06T09:27:36.696Z,101379.00
2023-05-06T09:30:09.798Z,101380.00
2023-05-06T09:32:39.856Z,101393.00
2023-05-06T09:35:08.625Z,101379.00
2023-05-06T09:37:36.260Z,101378.00
2023-05-06T09:40:03.211Z,101388.00
2023-05-06T09:42:31.005Z,101391.00
2023-05-06T09:45:02.002Z,101401.00
2023-05-06T09:47:35.192Z,101389.00
2023-05-06T09:50:03.772Z,101389.00
2023-05-06T09:52:31.532Z,101391.00
2023-05-06T09:54:59.313Z,101398.00
2023-05-06T09:57:26.703Z,101398.00
2023-05-06T09:59:55.523Z,101385.00
2023-05-06T10:02:23.867Z,101387.00
2023-05-06T10:04:52.684Z,101396.00
2023-05-06T10:07:25.638Z,101392.00
2023-05-06T10:09:54.110Z,101399.00
2023-05-06T10:12:21.575Z,101395.00
2023-05-06T10:14:48.451Z,101398.00
2023-05-06T10:17:18.997Z,101395.00
2023-05-06T10:19:47.613Z,101404.00
2023-05-06T10:22:37.745Z,101407.00
2023-05-06T10:25:33.765Z,101418.00
2023-05-06T10:28:03.005Z,101415.00
2023-05-06T10:30:35.201Z,101419.00
2023-05-06T10:33:10.066Z,101415.00
2023-05-06T10:36:03.192Z,101412.00
2023-05-06T10:38:37.961Z,101410.00
2023-05-06T10:41:05.048Z,101412.00
2023-05-06T10:43:34.188Z,101414.00
2023-05-06T10:46:16.393Z,101419.00
2023-05-06T10:49:06.151Z,101422.00
2023-05-06T10:51:34.369Z,101421.00
2023-05-06T10:54:08.722Z,101432.00
2023-05-06T10:56:59.777Z,101414.00
2023-05-06T10:59:31.028Z,101427.00
2023-05-06T11:02:04.433Z,101421.00
2023-05-06T11:04:31.617Z,101430.00
2023-05-06T11:07:21.157Z,101422.00
2023-05-06T11:10:05.021Z,101430.00
2023-05-06T11:12:52.597Z,101424.00
2023-05-06T11:15:40.429Z,101429.00
2023-05-06T11:18:36.938Z,101436.00
2023-05-06T11:21:06.919Z,101438.00
2023-05-06T11:23:43.102Z,101438.00
2023-05-06T11:26:11.712Z,101451.00
2023-05-06T11:28:40.357Z,101450.00
2023-05-06T11:31:08.494Z,101445.00
2023-05-06T11:33:42.167Z,101441.00
2023-05-06T11:36:18.719Z,101453.00
2023-05-06T11:38:52.812Z,101450.00
2023-05-06T11:41:21.990Z,101453.00
2023-05-06T11:43:51.332Z,101457.00
2023-05-06T11:46:23.885Z,101456.00
2023-05-06T11:48:51.066Z,101458.00
2023-05-06T11:51:24.953Z,101463.00
2023-05-06T11:54:03.174Z,101471.00
2023-05-06T11:56:30.000Z,101473.00
2023-05-06T11:58:57.030Z,101476.00
2023-05-06T12:01:24.322Z,101481.00
2023-05-06T12:03:55.772Z,101482.00
2023-05-06T12:06:35.730Z,101494.00
2023-05-06T12:09:06.267Z,101479.00
2023-05-06T12:11:35.015Z,101490.00
2023-05-06T12:14:06.017Z,101491.00
2023-05-06T12:16:35.268Z,101491.00
2023-05-06T12:19:03.358Z,101495.00
2023-05-06T12:21:30.982Z,101498.00
2023-05-06T12:24:01.688Z,101494.00
2023-05-06T12:26:28.515Z,101512.00
2023-05-06T12:29:08.802Z,101511.00
2023-05-06T12:31:35.862Z,101515.00
2023-05-06T12:34:04.225Z,101514.00
2023-05-06T12:36:32.537Z,101518.00
2023-05-06T12:39:01.543Z,101512.00
2023-05-06T12:41:46.202Z,101516.00
2023-05-06T12:44:39.360Z,101513.00
2023-05-06T12:47:20.105Z,101524.00
2023-05-06T12:49:59.467Z,101528.00
2023-05-06T12:52:29.753Z,101527.00
2023-05-06T12:54:57.469Z,101538.00
2023-05-06T12:57:24.248Z,101538.00
2023-05-06T12:59:51.048Z,101538.00
2023-05-06T13:02:18.597Z,101549.00
2023-05-06T13:04:46.793Z,101549.00
2023-05-06T13:07:13.730Z,101546.00
2023-05-06T13:09:40.523Z,101547.00
2023-05-06T13:12:08.206Z,101552.00
2023-05-06T13:14:36.404Z,101551.00
2023-05-06T13:17:06.809Z,101544.00
2023-05-06T13:19:34.015Z,101548.00
2023-05-06T13:22:01.619Z,101546.00
2023-05-06T13:24:29.318Z,101548.00
2023-05-06T13:27:00.945Z,101548.00
2023-05-06T13:29:29.368Z,101545.00
2023-05-06T13:31:56.371Z,101544.00
2023-05-06T13:34:23.131Z,101553.00
2023-05-06T13:36:50.798Z,101545.00
2023-05-06T13:39:17.580Z,101544.00
2023-05-06T13:41:48.846Z,101543.00
2023-05-06T13:44:16.923Z,101544.00
2023-05-06T13:46:46.089Z,101546.00
2023-05-06T13:49:14.613Z,101551.00
2023-05-06T13:51:41.387Z,101549.00
2023-05-06T13:54:08.163Z,101550.00
2023-05-06T13:56:35.148Z,101556.00
2023-05-06T13:59:01.894Z,101553.00
2023-05-06T14:01:28.786Z,101553.00
2023-05-06T14:03:55.561Z,101548.00
2023-05-06T14:06:22.309Z,101552.00
2023-05-06T14:08:49.079Z,101546.00
2023-05-06T14:11:16.254Z,101546.00
2023-05-06T14:13:42.970Z,101549.00
2023-05-06T14:16:09.755Z,101540.00
2023-05-06T14:18:36.688Z,101544.00
2023-05-06T14:21:03.677Z,101549.00
2023-05-06T14:23:30.541Z,101546.00
2023-05-06T14:25:57.345Z,101542.00
2023-05-06T14:28:24.065Z,101559.00
2023-05-06T14:30:51.347Z,101549.00
2023-05-06T14:33:18.229Z,101554.00
2023-05-06T14:35:46.198Z,101554.00
2023-05-06T14:38:13.050Z,101549.00
2023-05-06T14:40:39.795Z,101547.00
2023-05-06T14:43:09.494Z,101544.00
2023-05-06T14:45:36.373Z,101552.00
2023-05-06T14:48:03.797Z,101547.00
2023-05-06T14:50:31.279Z,101567.00
2023-05-06T14:52:58.086Z,101569.00
2023-05-06T14:55:25.848Z,101558.00
2023-05-06T14:57:53.053Z,101565.00
2023-05-06T15:00:20.566Z,101576.00
2023-05-06T15:02:47.451Z,101576.00
2023-05-06T15:05:14.482Z,101581.00
2023-05-06T15:07:42.003Z,101574.00
2023-05-06T15:10:09.066Z,101584.00
2023-05-06T15:12:37.180Z,101576.00
2023-05-06T15:15:05.130Z,101587.00
2023-05-06T15:17:32.537Z,101576.00
2023-05-06T15:19:59.368Z,101587.00
2023-05-06T15:22:26.127Z,101576.00
2023-05-06T15:24:52.867Z,101586.00
2023-05-06T15:27:19.594Z,101581.00
2023-05-06T15:29:46.348Z,101583.00
2023-05-06T15:32:13.217Z,101581.00
2023-05-06T15:34:39.968Z,101597.00
2023-05-06T15:37:08.042Z,101592.00
2023-05-06T15:39:37.657Z,101595.00
2023-05-06T15:42:04.967Z,101590.00
2023-05-06T15:44:33.522Z,101594.00
2023-05-06T15:47:00.624Z,101588.00
2023-05-06T15:49:49.542Z,101577.00
2023-05-06T15:52:14.332Z,101570.00
2023-05-06T15:54:41.374Z,101583.00
2023-05-06T15:57:08.367Z,101574.00
2023-05-06T15:59:35.160Z,101578.00
2023-05-06T16:02:26.318Z,101581.00
2023-05-06T16:04:48.904Z,101592.00
2023-05-06T16:07:16.614Z,101596.00
2023-05-06T16:09:43.372Z,101600.00
2023-05-06T16:12:10.214Z,101600.00
2023-05-06T16:14:37.007Z,101587.00
2023-05-06T16:17:03.776Z,101587.00
2023-05-06T16:19:32.103Z,101599.00
2023-05-06T16:21:58.869Z,101594.00
2023-05-06T16:24:25.696Z,101601.00
2023-05-06T16:26:52.493Z,101595.00
2023-05-06T16:29:20.711Z,101593.00
2023-05-06T16:31:48.885Z,101597.00
2023-05-06T16:34:16.121Z,101606.00
2023-05-06T16:36:43.578Z,101614.00
2023-05-06T16:39:10.328Z,101606.00
2023-05-06T16:41:37.083Z,101616.00
2023-05-06T16:44:04.202Z,101618.00
2023-05-06T16:46:31.083Z,101613.00
2023-05-06T16:48:57.881Z,101615.00
2023-05-06T16:51:24.820Z,101622.00
2023-05-06T16:53:51.563Z,101613.00
2023-05-06T16:56:19.041Z,101621.00
2023-05-06T16:58:45.803Z,101619.00
2023-05-06T17:01:12.543Z,101619.00
2023-05-06T17:03:40.525Z,101635.00
2023-05-06T17:06:07.785Z,101623.00
2023-05-06T17:08:36.489Z,101621.00
2023-05-06T17:11:06.527Z,101622.00
2023-05-06T17:13:34.114Z,101630.00
2023-05-06T17:16:00.916Z,101631.00
2023-05-06T17:18:27.696Z,101634.00
2023-05-06T17:20:56.374Z,101642.00
2023-05-06T17:23:24.536Z,101645.00
2023-05-06T17:25:51.857Z,101642.00
2023-05-06T17:31:05.615Z,101657.00
2023-05-06T17:33:32.362Z,101644.00
2023-05-06T17:35:59.131Z,101639.00
2023-05-06T17:38:26.050Z,101646.00
2023-05-06T17:40:52.777Z,101645.00
2023-05-06T17:43:19.552Z,101645.00
2023-05-06T17:45:47.264Z,101644.00
2023-05-06T17:48:14.030Z,101640.00
2023-05-06T17:50:41.250Z,101635.00
2023-05-06T17:53:08.065Z,101639.00
2023-05-06T17:55:34.840Z,101647.00
2023-05-06T17:58:01.626Z,101662.00
2023-05-06T18:00:28.514Z,101649.00
2023-05-06T18:02:55.514Z,101661.00
2023-05-06T18:05:24.544Z,101654.00
2023-05-06T18:07:52.579Z,101661.00
2023-05-06T18:10:19.781Z,101648.00
2023-05-06T18:12:46.938Z,101654.00
2023-05-06T18:15:14.492Z,101670.00
2023-05-06T18:17:41.234Z,101660.00
2023-05-06T18:20:10.112Z,101660.00
2023-05-06T18:22:37.013Z,101656.00
2023-05-06T18:25:04.307Z,101660.00
2023-05-06T18:27:32.306Z,101664.00
2023-05-06T18:29:59.395Z,101662.00
2023-05-06T18:32:26.202Z,101671.00
2023-05-06T18:34:53.064Z,101664.00
2023-05-06T18:37:19.817Z,101665.00
2023-05-06T18:39:46.546Z,101674.00
2023-05-06T18:42:13.272Z,101680.00
2023-05-06T18:44:42.863Z,101673.00
2023-05-06T18:47:09.629Z,101685.00
2023-05-06T18:49:36.485Z,101682.00
2023-05-06T18:52:03.630Z,101677.00
2023-05-06T18:54:30.690Z,101682.00
2023-05-06T18:56:58.578Z,101687.00
2023-05-06T18:59:26.043Z,101690.00
2023-05-06T19:01:52.822Z,101687.00
2023-05-06T19:04:19.820Z,101694.00
2023-05-06T19:06:47.323Z,101690.00
2023-05-06T19:09:14.272Z,101687.00
2023-05-06T19:11:41.065Z,101687.00
2023-05-06T19:14:07.908Z,101689.00
2023-05-06T19:16:34.686Z,101695.00
2023-05-06T19:19:02.806Z,101694.00
2023-05-06T19:21:29.607Z,101701.00
2023-05-06T19:23:59.719Z,101697.00
2023-05-06T19:26:30.044Z,101704.00
2023-05-06T19:28:56.844Z,101694.00
2023-05-06T19:31:23.715Z,101706.00
2023-05-06T19:33:50.660Z,101709.00
2023-05-06T19:36:17.519Z,101694.00
2023-05-06T19:38:44.373Z,101696.00
2023-05-06T19:41:11.131Z,101701.00
2023-05-06T19:43:44.607Z,101701.00
2023-05-06T19:46:12.465Z,101710.00
2023-05-06T19:48:39.465Z,101707.00
2023-05-06T19:51:06.951Z,101704.00
2023-05-06T19:53:34.334Z,101711.00
2023-05-06T19:56:12.708Z,101704.00
2023-05-06T19:58:40.380Z,101700.00
2023-05-06T20:01:07.493Z,101694.00
2023-05-06T20:03:35.602Z,101692.00
2023-05-06T20:06:03.921Z,101695.00
2023-05-06T20:08:31.022Z,101688.00
2023-05-06T20:10:57.728Z,101705.00
2023-05-06T20:13:24.674Z,101699.00
2023-05-06T20:15:51.654Z,101715.00
2023-05-06T20:18:18.472Z,101718.00
2023-05-06T20:20:45.930Z,101711.00
2023-05-06T20:23:12.920Z,101715.00
2023-05-06T20:25:39.687Z,101713.00
2023-05-06T20:28:07.019Z,101713.00
2023-05-06T20:30:34.325Z,101714.00
2023-05-06T20:33:01.311Z,101719.00
2023-05-06T20:35:28.273Z,101713.00
2023-05-06T20:37:55.722Z,101707.00
2023-05-06T20:40:22.565Z,101715.00
2023-05-06T20:42:49.337Z,101710.00
2023-05-06T20:45:16.717Z,101711.00
2023-05-06T20:47:44.275Z,101719.00
2023-05-06T20:50:16.715Z,101722.00
2023-05-06T20:52:45.913Z,101731.00
2023-05-06T20:55:15.882Z,101723.00
2023-05-06T20:57:44.404Z,101722.00
2023-05-06T21:00:12.112Z,101721.00
2023-05-06T21:02:41.186Z,101736.00
2023-05-06T21:05:09.928Z,101722.00
2023-05-06T21:07:36.844Z,101728.00
2023-05-06T21:10:05.760Z,101727.00
2023-05-06T21:12:33.499Z,101725.00
2023-05-06T21:15:01.084Z,101724.00
2023-05-06T21:17:29.075Z,101729.00
2023-05-06T21:19:56.120Z,101732.00
2023-05-06T21:22:23.818Z,101727.00
2023-05-06T21:24:51.054Z,101730.00
2023-05-06T21:27:17.878Z,101723.00
2023-05-06T21:29:44.594Z,101717.00
2023-05-06T21:32:11.362Z,101726.00
2023-05-06T21:34:38.172Z,101725.00
2023-05-06T21:37:04.920Z,101732.00
2023-05-06T21:39:31.670Z,101740.00
2023-05-06T21:41:58.531Z,101725.00
2023-05-06T21:44:25.333Z,101725.00
2023-05-06T21:46:52.131Z,101729.00
2023-05-06T21:49:19.512Z,101722.00
2023-05-06T21:51:46.567Z,101722.00
2023-05-06T21:54:13.332Z,101727.00
2023-05-06T21:56:40.071Z,101732.00
2023-05-06T21:59:07.885Z,101719.00
2023-05-06T22:01:36.277Z,101733.00
2023-05-06T22:04:04.816Z,101722.00
2023-05-06T22:06:31.728Z,101732.00
2023-05-06T22:08:58.457Z,101730.00
2023-05-06T22:11:25.220Z,101739.00
2023-05-06T22:13:51.957Z,101735.00
2023-05-06T22:16:18.779Z,101727.00
2023-05-06T22:18:45.592Z,101739.00
2023-05-06T22:21:12.325Z,101725.00
2023-05-06T22:23:40.533Z,101733.00
2023-05-06T22:26:07.419Z,101739.00
2023-05-06T22:28:34.407Z,101738.00
2023-05-06T22:31:01.340Z,101737.00
2023-05-06T22:33:28.113Z,101746.00
2023-05-06T22:35:55.523Z,101732.00
2023-05-06T22:38:22.552Z,101745.00
2023-05-06T22:40:49.374Z,101743.00
2023-05-06T22:43:16.234Z,101741.00
2023-05-06T22:45:43.275Z,101750.00
2023-05-06T22:48:10.899Z,101742.00
2023-05-06T22:50:38.096Z,101739.00
2023-05-06T22:53:13.764Z,101738.00
2023-05-06T22:55:42.091Z,101747.00
2023-05-06T22:58:08.884Z,101743.00
2023-05-06T23:00:35.805Z,101745.00
2023-05-06T23:03:02.923Z,101751.00
2023-05-06T23:05:29.731Z,101752.00
2023-05-06T23:07:56.473Z,101752.00
2023-05-06T23:10:23.238Z,101759.00
2023-05-06T23:12:50.003Z,101753.00
2023-05-06T23:15:16.909Z,101754.00
2023-05-06T23:17:43.734Z,101759.00
2023-05-06T23:20:12.721Z,101765.00
2023-05-06T23:22:39.511Z,101759.00
2023-05-06T23:25:09.070Z,101756.00
2023-05-06T23:27:41.021Z,101762.00
2023-05-06T23:30:09.715Z,101757.00
2023-05-06T23:32:38.151Z,101760.00
2023-05-06T23:35:07.228Z,101761.00
2023-05-06T23:37:34.332Z,101745.00
2023-05-06T23:40:01.180Z,101743.00
2023-05-06T23:42:27.896Z,101754.00
2023-05-06T23:44:54.629Z,101760.00
2023-05-06T23:47:21.392Z,101756.00
2023-05-06T23:49:48.156Z,101761.00
2023-05-06T23:52:14.992Z,101764.00
2023-05-06T23:54:41.713Z,101760.00
2023-05-06T23:57:08.639Z,101747.00
2023-05-06T23:59:35.511Z,101756.00
